KNBG/NBG METAR and TAF weather

Enter ICAO airport designator
Station Type Date Time Source
KNBG METAR 2020/02/19 14:32 UTC NOAA

KNBG 191432Z 04006KT 2SM -DZ BR OVC004 20/20 A3021 RMK AO2 RAB1356E32DZB32 P0000 T02000200 $


Station Type Date Time Source
KNBG Decoded METAR 2020/02/19 14:32 UTC NOAA

NEW ORLEANS NAVAL AIR STN, LA, United States (KNBG) 29-50N 90-01W
Feb 19, 2020 - 09:32 AM EST / 2020.02.19 1432 UTC
Wind: from the NE (040 degrees) at 7 MPH (6 KT):0
Visibility: 2 mile(s):0
Sky conditions: overcast
Weather: light drizzle; mist
Precipitation last hour: A trace
Temperature: 68.0 F (20.0 C)
Dew Point: 68.0 F (20.0 C)
Relative Humidity: 100%
Pressure (altimeter): 30.21 in. Hg (1023 hPa)
ob: KNBG 191432Z 04006KT 2SM -DZ BR OVC004 20/20 A3021 RMK AO2 RAB1356E32DZB32 P0000 T02000200
cycle: 14

Station Type Date Time Source
KNBG TAF 2020/02/19 07:06 UTC NOAA

TAF TAF KNBG 1907/2007 VRB05KT 0400 FG VV001 QNH3008INS
FM191100 01005G10KT 2400 BR OVC010 QNH3012INS
BECMG 1914/1916 05008G18KT 4800 BR OVC020 QNH3018INS
TEMPO 1914/1916 OVC004
BECMG 1920/1922 04008G18KT 9999 NSW SCT020 BKN090 QNH3014INS
FM200100 04008G13KT 9999 SCT090 QNH3020INS AUTOMATED SENSOR METWATCH 1907 TIL 1911 T19/1909Z T22/1922Z FN00085

Example: see airport list